createdAt,value
2023-05-06T00:02:04.374Z,14.03
2023-05-06T00:05:12.964Z,13.98
2023-05-06T00:08:40.424Z,13.92
2023-05-06T00:12:08.359Z,13.86
2023-05-06T00:14:57.886Z,13.80
2023-05-06T00:18:25.583Z,13.74
2023-05-06T00:21:53.107Z,13.74
2023-05-06T00:25:01.172Z,13.78
2023-05-06T00:28:28.860Z,13.82
2023-05-06T00:31:21.685Z,13.86
2023-05-06T00:34:49.564Z,13.90
2023-05-06T00:38:17.276Z,13.92
2023-05-06T00:41:44.998Z,13.93
2023-05-06T00:45:12.589Z,13.95
2023-05-06T00:48:40.375Z,13.96
2023-05-06T00:52:08.313Z,13.91
2023-05-06T00:55:36.042Z,13.86
2023-05-06T00:58:44.447Z,13.80
2023-05-06T01:02:12.015Z,13.70
2023-05-06T01:05:39.457Z,13.60
2023-05-06T01:09:07.344Z,13.50
2023-05-06T01:12:35.308Z,13.36
2023-05-06T01:16:02.990Z,13.28
2023-05-06T01:19:30.647Z,13.18
2023-05-06T01:22:19.529Z,13.12
2023-05-06T01:25:47.024Z,13.07
2023-05-06T01:29:14.806Z,13.05
2023-05-06T01:32:42.689Z,13.05
2023-05-06T01:36:10.326Z,13.08
2023-05-06T01:39:19.364Z,13.06
2023-05-06T01:42:46.795Z,13.04
2023-05-06T01:46:14.263Z,13.01
2023-05-06T01:49:41.702Z,12.93
2023-05-06T01:52:49.767Z,12.85
2023-05-06T01:56:18.222Z,12.73
2023-05-06T01:59:28.934Z,12.67
2023-05-06T02:02:55.978Z,12.58
2023-05-06T02:06:23.537Z,12.51
2023-05-06T02:09:51.274Z,12.45
2023-05-06T02:13:18.854Z,12.41
2023-05-06T02:16:27.965Z,12.38
2023-05-06T02:19:55.403Z,12.34
2023-05-06T02:22:43.898Z,12.34
2023-05-06T02:25:51.519Z,12.32
2023-05-06T02:29:19.166Z,12.30
2023-05-06T02:32:46.861Z,12.28
2023-05-06T02:36:14.554Z,12.25
2023-05-06T02:39:42.121Z,12.20
2023-05-06T02:43:09.795Z,12.13
2023-05-06T02:46:37.570Z,12.07
2023-05-06T02:49:46.030Z,12.00
2023-05-06T02:52:54.788Z,11.91
2023-05-06T02:56:22.201Z,11.88
2023-05-06T02:59:31.350Z,11.87
2023-05-06T03:02:59.405Z,11.86
2023-05-06T03:06:27.275Z,11.87
2023-05-06T03:09:37.237Z,11.88
2023-05-06T03:13:05.211Z,11.88
2023-05-06T03:16:32.846Z,11.88
2023-05-06T03:19:41.741Z,11.87
2023-05-06T03:23:09.665Z,11.86
2023-05-06T03:26:37.477Z,11.85
2023-05-06T03:30:05.464Z,11.81
2023-05-06T03:33:33.337Z,11.77
2023-05-06T03:37:00.986Z,11.76
2023-05-06T03:40:09.260Z,11.77
2023-05-06T03:43:37.182Z,11.75
2023-05-06T03:47:04.986Z,11.74
2023-05-06T03:50:32.838Z,11.73
2023-05-06T03:53:42.194Z,11.73
2023-05-06T03:56:51.336Z,11.76
2023-05-06T04:00:19.345Z,11.81
2023-05-06T04:03:28.433Z,11.84
2023-05-06T04:06:36.600Z,11.89
2023-05-06T04:10:04.420Z,11.94
2023-05-06T04:13:28.605Z,12.01
2023-05-06T04:16:56.433Z,12.07
2023-05-06T04:20:05.582Z,12.13
2023-05-06T04:23:14.271Z,12.19
2023-05-06T04:25:42.637Z,12.27
2023-05-06T04:29:10.541Z,12.34
2023-05-06T04:32:34.115Z,12.44
2023-05-06T04:35:23.676Z,12.49
2023-05-06T04:38:51.373Z,12.56
2023-05-06T04:42:19.122Z,12.64
2023-05-06T04:45:46.993Z,12.72
2023-05-06T04:49:14.821Z,12.80
2023-05-06T04:52:42.827Z,12.87
2023-05-06T04:55:51.514Z,12.93
2023-05-06T04:59:19.369Z,13.03
2023-05-06T05:02:09.377Z,13.13
2023-05-06T05:05:37.367Z,13.23
2023-05-06T05:09:05.099Z,13.35
2023-05-06T05:12:33.353Z,13.49
2023-05-06T05:15:25.720Z,13.61
2023-05-06T05:18:53.435Z,13.75
2023-05-06T05:22:21.274Z,13.87
2023-05-06T05:25:49.027Z,13.98
2023-05-06T05:29:25.666Z,14.11
2023-05-06T05:32:53.755Z,14.23
2023-05-06T05:36:02.290Z,14.38
2023-05-06T05:39:30.329Z,14.57
2023-05-06T05:42:58.849Z,14.74
2023-05-06T05:46:09.768Z,14.89
2023-05-06T05:49:18.786Z,15.05
2023-05-06T05:52:46.566Z,15.24
2023-05-06T05:55:56.384Z,15.39
2023-05-06T05:59:24.060Z,15.54
2023-05-06T06:02:33.091Z,15.67
2023-05-06T06:05:41.901Z,15.81
2023-05-06T06:09:09.823Z,16.07
2023-05-06T06:11:58.964Z,16.26
2023-05-06T06:15:27.180Z,16.43
2023-05-06T06:18:35.315Z,16.55
2023-05-06T06:22:03.262Z,16.70
2023-05-06T06:25:31.380Z,16.87
2023-05-06T06:28:39.851Z,17.05
2023-05-06T06:32:08.030Z,17.27
2023-05-06T06:35:35.972Z,17.46
2023-05-06T06:38:24.811Z,17.63
2023-05-06T06:41:52.878Z,17.77
2023-05-06T06:45:20.903Z,17.93
2023-05-06T06:48:48.846Z,18.08
2023-05-06T06:51:58.578Z,18.14
2023-05-06T06:55:07.430Z,18.12
2023-05-06T06:58:16.319Z,18.11
2023-05-06T07:01:44.431Z,18.21
2023-05-06T07:05:12.469Z,18.34
2023-05-06T07:08:41.215Z,18.55
2023-05-06T07:12:09.811Z,18.75
2023-05-06T07:15:37.809Z,18.88
2023-05-06T07:19:06.927Z,19.09
2023-05-06T07:22:35.530Z,19.24
2023-05-06T07:26:03.587Z,19.41
2023-05-06T07:29:31.464Z,19.58
2023-05-06T07:32:59.189Z,19.73
2023-05-06T07:36:27.062Z,19.88
2023-05-06T07:39:54.987Z,20.03
2023-05-06T07:43:23.205Z,20.05
2023-05-06T07:46:51.135Z,20.05
2023-05-06T07:49:39.886Z,20.11
2023-05-06T07:52:48.328Z,20.19
2023-05-06T07:56:16.197Z,20.37
2023-05-06T07:59:45.340Z,20.53
2023-05-06T08:03:00.686Z,20.69
2023-05-06T08:06:28.484Z,20.87
2023-05-06T08:09:56.377Z,20.99
2023-05-06T08:13:24.230Z,20.96
2023-05-06T08:16:35.894Z,20.99
2023-05-06T08:19:25.225Z,21.03
2023-05-06T08:22:53.158Z,21.12
2023-05-06T08:26:20.954Z,21.15
2023-05-06T08:29:48.779Z,21.26
2023-05-06T08:32:57.740Z,21.38
2023-05-06T08:36:25.713Z,21.48
2023-05-06T08:39:34.825Z,21.61
2023-05-06T08:43:02.535Z,21.74
2023-05-06T08:46:30.438Z,21.81
2023-05-06T08:49:58.372Z,21.95
2023-05-06T08:53:26.373Z,22.16
2023-05-06T08:56:54.363Z,22.28
2023-05-06T09:00:22.236Z,22.34
2023-05-06T09:03:31.266Z,22.43
2023-05-06T09:06:59.151Z,22.39
2023-05-06T09:10:07.204Z,22.46
2023-05-06T09:13:35.053Z,22.59
2023-05-06T09:16:44.029Z,22.68
2023-05-06T09:20:11.836Z,22.73
2023-05-06T09:23:39.873Z,22.82
2023-05-06T09:27:10.393Z,22.91
2023-05-06T09:30:36.240Z,23.03
2023-05-06T09:33:44.790Z,23.11
2023-05-06T09:37:12.781Z,23.36
2023-05-06T09:40:41.580Z,23.55
2023-05-06T09:44:09.453Z,23.81
2023-05-06T09:47:37.221Z,24.03
2023-05-06T09:51:04.765Z,24.03
2023-05-06T09:54:32.556Z,23.87
2023-05-06T09:58:00.488Z,23.71
2023-05-06T10:01:35.937Z,23.91
2023-05-06T10:04:56.273Z,24.20
2023-05-06T10:08:23.891Z,24.33
2023-05-06T10:11:51.894Z,24.19
2023-05-06T10:15:20.014Z,24.49
2023-05-06T10:18:47.793Z,24.78
2023-05-06T10:22:15.873Z,24.93
2023-05-06T10:25:43.564Z,25.04
2023-05-06T10:29:11.457Z,25.13
2023-05-06T10:32:39.341Z,24.71
2023-05-06T10:36:07.295Z,24.44
2023-05-06T10:39:34.980Z,24.43
2023-05-06T10:43:03.047Z,24.37
2023-05-06T10:46:13.060Z,24.71
2023-05-06T10:49:40.699Z,25.12
2023-05-06T10:53:08.469Z,25.11
2023-05-06T10:56:18.550Z,24.90
2023-05-06T10:59:46.657Z,24.85
2023-05-06T11:03:14.622Z,24.83
2023-05-06T11:06:43.341Z,25.17
2023-05-06T11:10:11.158Z,25.57
2023-05-06T11:13:39.320Z,26.25
2023-05-06T11:17:07.272Z,26.61
2023-05-06T11:19:35.816Z,26.42
2023-05-06T11:23:03.701Z,26.33
2023-05-06T11:26:31.694Z,26.53
2023-05-06T11:29:55.740Z,26.30
2023-05-06T11:33:23.568Z,26.03
2023-05-06T11:36:31.981Z,25.98
2023-05-06T11:39:41.866Z,26.34
2023-05-06T11:42:52.076Z,26.70
2023-05-06T11:46:00.283Z,26.92
2023-05-06T11:49:28.158Z,26.68
2023-05-06T11:52:56.248Z,26.58
2023-05-06T11:56:24.037Z,26.81
2023-05-06T11:59:51.771Z,27.11
2023-05-06T12:03:00.190Z,27.32
2023-05-06T12:06:12.089Z,27.26
2023-05-06T12:09:00.957Z,27.24
2023-05-06T12:12:28.857Z,27.36
2023-05-06T12:15:24.838Z,27.66
2023-05-06T12:18:13.800Z,27.60
2023-05-06T12:20:41.785Z,27.55
2023-05-06T12:23:37.527Z,27.65
2023-05-06T12:27:05.804Z,27.64
2023-05-06T12:30:33.883Z,27.53
2023-05-06T12:34:02.139Z,27.39
2023-05-06T12:37:30.064Z,27.27
2023-05-06T12:40:58.134Z,27.46
2023-05-06T12:44:06.381Z,28.03
2023-05-06T12:47:14.321Z,28.15
2023-05-06T12:49:52.282Z,28.40
2023-05-06T12:52:42.592Z,28.80
2023-05-06T12:55:46.190Z,29.12
2023-05-06T12:58:39.773Z,29.21
2023-05-06T13:01:10.246Z,29.22
2023-05-06T13:04:19.747Z,29.18
2023-05-06T13:07:12.222Z,29.12
2023-05-06T13:10:00.212Z,28.77
2023-05-06T13:13:27.978Z,28.32
2023-05-06T13:16:12.288Z,28.06
2023-05-06T13:19:40.091Z,27.79
2023-05-06T13:22:33.761Z,27.58
2023-05-06T13:26:04.893Z,27.30
2023-05-06T13:29:07.411Z,27.04
2023-05-06T13:31:55.562Z,26.77
2023-05-06T13:35:05.685Z,26.51
2023-05-06T13:38:33.613Z,26.33
2023-05-06T13:41:43.348Z,26.31
2023-05-06T13:44:42.360Z,26.24
2023-05-06T13:48:15.506Z,26.27
2023-05-06T13:51:23.924Z,26.22
2023-05-06T13:54:24.478Z,26.14
2023-05-06T13:57:34.029Z,26.27
2023-05-06T14:00:24.531Z,26.50
2023-05-06T14:03:52.376Z,26.99
2023-05-06T14:07:20.485Z,27.47
2023-05-06T14:10:28.753Z,27.85
2023-05-06T14:12:57.495Z,28.15
2023-05-06T14:16:06.448Z,28.53
2023-05-06T14:19:34.959Z,28.77
2023-05-06T14:23:02.762Z,28.88
2023-05-06T14:26:30.511Z,28.56
2023-05-06T14:29:42.404Z,28.12
2023-05-06T14:32:30.658Z,28.04
2023-05-06T14:35:18.616Z,27.93
2023-05-06T14:38:49.351Z,28.06
2023-05-06T14:41:38.828Z,28.23
2023-05-06T14:45:06.857Z,28.48
2023-05-06T14:48:15.902Z,28.79
2023-05-06T14:51:44.095Z,28.93
2023-05-06T14:55:12.726Z,29.11
2023-05-06T14:58:40.415Z,29.16
2023-05-06T15:02:08.697Z,29.38
2023-05-06T15:04:38.652Z,29.41
2023-05-06T15:08:06.864Z,29.36
2023-05-06T15:11:15.264Z,29.45
2023-05-06T15:14:23.343Z,29.72
2023-05-06T15:17:39.753Z,29.69
2023-05-06T15:21:07.732Z,29.85
2023-05-06T15:24:36.148Z,29.71
2023-05-06T15:28:04.282Z,29.90
2023-05-06T15:31:12.780Z,30.34
2023-05-06T15:34:40.836Z,30.55
2023-05-06T15:38:09.733Z,30.99
2023-05-06T15:41:37.819Z,31.32
2023-05-06T15:44:45.914Z,31.71
2023-05-06T15:47:54.088Z,31.89
2023-05-06T15:51:22.061Z,31.86
2023-05-06T15:54:50.341Z,31.89
2023-05-06T15:58:00.407Z,31.46
2023-05-06T16:01:11.418Z,31.07
2023-05-06T16:04:40.668Z,30.54
2023-05-06T16:07:49.462Z,30.23
2023-05-06T16:11:17.362Z,29.94
2023-05-06T16:14:07.117Z,29.63
2023-05-06T16:17:04.167Z,29.19
2023-05-06T16:20:12.814Z,28.71
2023-05-06T16:23:21.243Z,28.25
2023-05-06T16:26:49.088Z,27.76
2023-05-06T16:29:38.990Z,27.54
2023-05-06T16:33:07.159Z,27.54
2023-05-06T16:36:35.304Z,27.97
2023-05-06T16:40:06.814Z,28.32
2023-05-06T16:42:57.369Z,28.98
2023-05-06T16:45:25.188Z,29.57
2023-05-06T16:48:13.195Z,30.17
2023-05-06T16:51:16.446Z,30.63
2023-05-06T16:53:47.498Z,31.10
2023-05-06T16:56:16.648Z,31.33
2023-05-06T16:59:28.360Z,31.22
2023-05-06T17:02:20.128Z,31.05
2023-05-06T17:05:12.364Z,30.50
2023-05-06T17:08:20.328Z,29.88
2023-05-06T17:11:24.040Z,29.15
2023-05-06T17:14:12.444Z,28.45
2023-05-06T17:17:40.726Z,27.41
2023-05-06T17:20:55.645Z,26.78
2023-05-06T17:24:05.223Z,26.24
2023-05-06T17:27:33.208Z,25.68
2023-05-06T17:30:01.232Z,25.33
2023-05-06T17:32:59.425Z,24.99
2023-05-06T17:36:22.898Z,24.65
2023-05-06T17:39:50.843Z,24.29
2023-05-06T17:43:19.513Z,23.95
2023-05-06T17:46:35.498Z,23.63
2023-05-06T17:49:33.128Z,23.35
2023-05-06T17:52:42.014Z,23.10
2023-05-06T17:55:51.089Z,22.85
2023-05-06T17:58:49.451Z,22.62
2023-05-06T18:01:58.629Z,22.38
2023-05-06T18:05:26.668Z,22.14
2023-05-06T18:08:54.685Z,21.94
2023-05-06T18:12:22.468Z,21.74
2023-05-06T18:15:31.346Z,21.58
2023-05-06T18:18:59.265Z,21.44
2023-05-06T18:22:08.231Z,21.31
2023-05-06T18:25:36.174Z,21.17
2023-05-06T18:29:04.064Z,21.03
2023-05-06T18:32:32.054Z,20.87
2023-05-06T18:36:00.037Z,20.75
2023-05-06T18:38:49.598Z,20.69
2023-05-06T18:42:05.635Z,20.55
2023-05-06T18:44:54.534Z,20.48
2023-05-06T18:48:03.213Z,20.37
2023-05-06T18:51:15.143Z,20.30
2023-05-06T18:54:26.822Z,20.24
2023-05-06T18:57:23.477Z,20.14
2023-05-06T19:00:51.497Z,20.05
2023-05-06T19:04:07.326Z,19.99
2023-05-06T19:07:16.211Z,19.96
2023-05-06T19:10:43.564Z,19.88
2023-05-06T19:13:55.390Z,19.81
2023-05-06T19:16:45.867Z,19.72
2023-05-06T19:20:14.069Z,19.61
2023-05-06T19:23:18.345Z,19.53
2023-05-06T19:26:10.954Z,19.44
2023-05-06T19:29:00.288Z,19.39
2023-05-06T19:32:28.329Z,19.32
2023-05-06T19:35:36.305Z,19.23
2023-05-06T19:39:04.399Z,19.11
2023-05-06T19:42:12.457Z,19.03
2023-05-06T19:45:40.392Z,18.92
2023-05-06T19:48:50.495Z,18.84
2023-05-06T19:52:18.371Z,18.78
2023-05-06T19:55:46.293Z,18.71
2023-05-06T19:59:14.180Z,18.67
2023-05-06T20:02:42.280Z,18.59
2023-05-06T20:06:09.928Z,18.53
2023-05-06T20:09:37.814Z,18.49
2023-05-06T20:13:05.654Z,18.44
2023-05-06T20:16:33.361Z,18.36
2023-05-06T20:20:02.792Z,18.29
2023-05-06T20:23:29.230Z,18.24
2023-05-06T20:26:56.948Z,18.19
2023-05-06T20:30:24.792Z,18.19
2023-05-06T20:33:52.622Z,18.14
2023-05-06T20:37:20.551Z,18.05
2023-05-06T20:40:48.179Z,17.96
2023-05-06T20:44:16.022Z,17.91
2023-05-06T20:47:43.794Z,17.84
2023-05-06T20:51:11.567Z,17.78
2023-05-06T20:54:39.564Z,17.70
2023-05-06T20:58:07.173Z,17.66
2023-05-06T21:01:14.962Z,17.61
2023-05-06T21:04:43.145Z,17.56
2023-05-06T21:08:11.052Z,17.53
2023-05-06T21:11:38.956Z,17.49
2023-05-06T21:15:07.016Z,17.42
2023-05-06T21:18:34.860Z,17.35
2023-05-06T21:22:05.040Z,17.28
2023-05-06T21:25:13.862Z,17.22
2023-05-06T21:28:41.674Z,17.18
2023-05-06T21:32:09.416Z,17.13
2023-05-06T21:35:37.100Z,17.09
2023-05-06T21:38:46.552Z,17.05
2023-05-06T21:42:14.336Z,17.04
2023-05-06T21:45:42.682Z,17.00
2023-05-06T21:49:10.535Z,16.96
2023-05-06T21:52:19.200Z,16.95
2023-05-06T21:55:47.208Z,16.95
2023-05-06T21:59:14.945Z,16.95
2023-05-06T22:02:42.867Z,16.99
2023-05-06T22:06:10.624Z,17.02
2023-05-06T22:09:38.633Z,17.03
2023-05-06T22:13:06.651Z,17.04
2023-05-06T22:15:39.235Z,17.05
2023-05-06T22:19:07.122Z,17.04
2023-05-06T22:22:16.047Z,17.03
2023-05-06T22:25:43.822Z,17.02
2023-05-06T22:28:15.553Z,16.99
2023-05-06T22:31:43.714Z,16.94
2023-05-06T22:35:10.223Z,16.88
2023-05-06T22:37:42.971Z,16.85
2023-05-06T22:40:12.733Z,16.81
2023-05-06T22:43:22.968Z,16.77
2023-05-06T22:45:55.214Z,16.74
2023-05-06T22:49:11.029Z,16.69
2023-05-06T22:52:20.540Z,16.65
2023-05-06T22:55:38.080Z,16.58
2023-05-06T22:59:05.181Z,16.50
2023-05-06T23:02:32.941Z,16.42
2023-05-06T23:06:00.880Z,16.35
2023-05-06T23:09:28.815Z,16.26
2023-05-06T23:12:38.587Z,16.19
2023-05-06T23:16:06.332Z,16.13
2023-05-06T23:19:34.297Z,16.06
2023-05-06T23:23:02.106Z,15.99
2023-05-06T23:25:51.649Z,15.94
2023-05-06T23:29:19.541Z,15.87
2023-05-06T23:32:47.304Z,15.81
2023-05-06T23:35:56.195Z,15.77
2023-05-06T23:38:52.798Z,15.74
2023-05-06T23:42:20.530Z,15.71
2023-05-06T23:45:28.844Z,15.69
2023-05-06T23:48:56.614Z,15.68
2023-05-06T23:52:05.487Z,15.68
2023-05-06T23:55:33.135Z,15.67
2023-05-06T23:58:41.972Z,15.64
